sensor_id;sensor_type;location;lat;lon;timestamp;pressure;altitude;pressure_sealevel;temperature;humidity
39443;BME280;25147;52.142;9.960;2023-03-29T00:00:51;100904.94;;;5.22;57.37
39443;BME280;25147;52.142;9.960;2023-03-29T00:03:17;100904.09;;;5.22;57.95
39443;BME280;25147;52.142;9.960;2023-03-29T00:05:44;100738.41;;;4.20;57.62
39443;BME280;25147;52.142;9.960;2023-03-29T00:08:10;100906.63;;;5.19;57.57
39443;BME280;25147;52.142;9.960;2023-03-29T00:10:39;100908.34;;;5.18;57.66
39443;BME280;25147;52.142;9.960;2023-03-29T00:13:06;100901.44;;;5.17;57.67
39443;BME280;25147;52.142;9.960;2023-03-29T00:15:34;100813.34;;;4.64;58.12
39443;BME280;25147;52.142;9.960;2023-03-29T00:18:00;100886.59;;;5.07;57.91
39443;BME280;25147;52.142;9.960;2023-03-29T00:20:27;100883.16;;;5.10;58.10
39443;BME280;25147;52.142;9.960;2023-03-29T00:22:54;100837.59;;;4.68;58.44
39443;BME280;25147;52.142;9.960;2023-03-29T00:25:20;100852.56;;;4.86;57.97
39443;BME280;25147;52.142;9.960;2023-03-29T00:27:47;100784.63;;;4.52;58.74
39443;BME280;25147;52.142;9.960;2023-03-29T00:30:15;100709.69;;;4.06;58.03
39443;BME280;25147;52.142;9.960;2023-03-29T00:32:44;100617.41;;;3.55;58.24
39443;BME280;25147;52.142;9.960;2023-03-29T00:35:11;100870.13;;;5.05;58.25
39443;BME280;25147;52.142;9.960;2023-03-29T00:37:38;100736.63;;;4.19;57.81
39443;BME280;25147;52.142;9.960;2023-03-29T00:40:06;100838.69;;;4.83;58.10
39443;BME280;25147;52.142;9.960;2023-03-29T00:42:34;100763.81;;;4.46;58.37
39443;BME280;25147;52.142;9.960;2023-03-29T00:45:05;100837.00;;;4.87;58.51
39443;BME280;25147;52.142;9.960;2023-03-29T00:47:36;100781.22;;;4.56;58.24
39443;BME280;25147;52.142;9.960;2023-03-29T00:50:08;100805.66;;;4.70;58.11
39443;BME280;25147;52.142;9.960;2023-03-29T00:52:40;100749.88;;;4.36;58.71
39443;BME280;25147;52.142;9.960;2023-03-29T00:55:11;100838.88;;;4.97;58.80
39443;BME280;25147;52.142;9.960;2023-03-29T00:57:41;100696.88;;;4.15;58.62
39443;BME280;25147;52.142;9.960;2023-03-29T01:00:13;100866.75;;;5.12;58.41
39443;BME280;25147;52.142;9.960;2023-03-29T01:02:43;100854.63;;;5.11;58.79
39443;BME280;25147;52.142;9.960;2023-03-29T01:05:19;100604.59;;;3.64;58.63
39443;BME280;25147;52.142;9.960;2023-03-29T01:07:49;100852.00;;;5.10;59.24
39443;BME280;25147;52.142;9.960;2023-03-29T01:10:22;100851.19;;;5.12;59.17
39443;BME280;25147;52.142;9.960;2023-03-29T01:12:55;100749.94;;;4.43;59.55
39443;BME280;25147;52.142;9.960;2023-03-29T01:15:25;100753.59;;;4.56;59.45
39443;BME280;25147;52.142;9.960;2023-03-29T01:17:53;100837.34;;;5.12;59.57
39443;BME280;25147;52.142;9.960;2023-03-29T01:20:27;100827.78;;;5.08;59.69
39443;BME280;25147;52.142;9.960;2023-03-29T01:23:06;100772.94;;;4.81;60.09
39443;BME280;25147;52.142;9.960;2023-03-29T01:25:46;100702.34;;;4.37;59.87
39443;BME280;25147;52.142;9.960;2023-03-29T01:28:27;100697.78;;;4.19;60.06
39443;BME280;25147;52.142;9.960;2023-03-29T01:30:59;100546.56;;;3.48;60.34
39443;BME280;25147;52.142;9.960;2023-03-29T01:33:36;100723.25;;;4.49;60.77
39443;BME280;25147;52.142;9.960;2023-03-29T01:36:10;100627.41;;;3.90;60.62
39443;BME280;25147;52.142;9.960;2023-03-29T01:38:41;100659.75;;;4.16;61.11
39443;BME280;25147;52.142;9.960;2023-03-29T01:41:09;100653.66;;;4.14;61.70
39443;BME280;25147;52.142;9.960;2023-03-29T01:43:43;100808.66;;;5.02;61.82
39443;BME280;25147;52.142;9.960;2023-03-29T01:46:16;100752.00;;;4.66;61.94
39443;BME280;25147;52.142;9.960;2023-03-29T01:48:47;100675.38;;;4.22;62.82
39443;BME280;25147;52.142;9.960;2023-03-29T01:51:19;100642.19;;;3.95;63.52
39443;BME280;25147;52.142;9.960;2023-03-29T01:53:53;100804.22;;;4.91;63.62
39443;BME280;25147;52.142;9.960;2023-03-29T01:56:25;100706.53;;;4.27;63.58
39443;BME280;25147;52.142;9.960;2023-03-29T01:58:57;100794.63;;;4.85;64.09
39443;BME280;25147;52.142;9.960;2023-03-29T02:01:28;100562.09;;;3.48;64.77
39443;BME280;25147;52.142;9.960;2023-03-29T02:03:59;100603.84;;;3.71;65.23
39443;BME280;25147;52.142;9.960;2023-03-29T02:06:30;100659.53;;;4.02;65.94
39443;BME280;25147;52.142;9.960;2023-03-29T02:08:58;100649.09;;;3.96;67.15
39443;BME280;25147;52.142;9.960;2023-03-29T02:11:25;100793.66;;;4.80;68.08
39443;BME280;25147;52.142;9.960;2023-03-29T02:13:55;100789.34;;;4.79;69.01
39443;BME280;25147;52.142;9.960;2023-03-29T02:16:21;100787.66;;;4.82;69.86
39443;BME280;25147;52.142;9.960;2023-03-29T02:18:49;100678.78;;;4.20;70.38
39443;BME280;25147;52.142;9.960;2023-03-29T02:21:23;100696.25;;;4.32;71.25
39443;BME280;25147;52.142;9.960;2023-03-29T02:23:53;100713.50;;;4.31;71.65
39443;BME280;25147;52.142;9.960;2023-03-29T02:26:21;100758.97;;;4.70;72.33
39443;BME280;25147;52.142;9.960;2023-03-29T02:28:49;100616.72;;;3.68;72.44
39443;BME280;25147;52.142;9.960;2023-03-29T02:31:21;100733.72;;;4.57;73.17
39443;BME280;25147;52.142;9.960;2023-03-29T02:33:54;100764.16;;;4.72;73.28
39443;BME280;25147;52.142;9.960;2023-03-29T02:36:26;100767.53;;;4.65;73.59
39443;BME280;25147;52.142;9.960;2023-03-29T02:38:55;100750.22;;;4.62;73.78
39443;BME280;25147;52.142;9.960;2023-03-29T02:41:24;100763.22;;;4.65;73.98
39443;BME280;25147;52.142;9.960;2023-03-29T02:43:51;100760.59;;;4.63;74.65
39443;BME280;25147;52.142;9.960;2023-03-29T02:46:21;100761.44;;;4.61;75.49
39443;BME280;25147;52.142;9.960;2023-03-29T02:48:50;100750.94;;;4.53;76.54
39443;BME280;25147;52.142;9.960;2023-03-29T02:51:21;100586.19;;;3.44;76.93
39443;BME280;25147;52.142;9.960;2023-03-29T02:53:50;100753.53;;;4.52;78.23
39443;BME280;25147;52.142;9.960;2023-03-29T02:56:18;100613.22;;;3.63;78.77
39443;BME280;25147;52.142;9.960;2023-03-29T02:58:45;100741.31;;;4.43;79.86
39443;BME280;25147;52.142;9.960;2023-03-29T03:01:12;100749.06;;;4.40;80.70
39443;BME280;25147;52.142;9.960;2023-03-29T03:03:41;100661.75;;;3.75;81.69
39443;BME280;25147;52.142;9.960;2023-03-29T03:06:09;100729.84;;;4.26;82.87
39443;BME280;25147;52.142;9.960;2023-03-29T03:08:36;100735.03;;;4.27;83.52
39443;BME280;25147;52.142;9.960;2023-03-29T03:11:03;100732.44;;;4.26;84.19
39443;BME280;25147;52.142;9.960;2023-03-29T03:13:30;100674.78;;;3.82;84.66
39443;BME280;25147;52.142;9.960;2023-03-29T03:15:56;100729.69;;;4.16;85.27
39443;BME280;25147;52.142;9.960;2023-03-29T03:18:23;100735.78;;;4.18;85.73
39443;BME280;25147;52.142;9.960;2023-03-29T03:20:55;100731.47;;;4.17;85.84
39443;BME280;25147;52.142;9.960;2023-03-29T03:23:22;100728.84;;;4.16;86.63
39443;BME280;25147;52.142;9.960;2023-03-29T03:25:49;100699.09;;;3.92;86.49
39443;BME280;25147;52.142;9.960;2023-03-29T03:28:17;100590.47;;;3.44;86.73
39443;BME280;25147;52.142;9.960;2023-03-29T03:30:43;100563.41;;;3.23;86.96
39443;BME280;25147;52.142;9.960;2023-03-29T03:33:10;100700.09;;;3.99;87.19
39443;BME280;25147;52.142;9.960;2023-03-29T03:35:37;100710.56;;;4.05;87.39
39443;BME280;25147;52.142;9.960;2023-03-29T03:38:05;100691.53;;;4.05;87.61
39443;BME280;25147;52.142;9.960;2023-03-29T03:40:32;100567.75;;;3.24;87.81
39443;BME280;25147;52.142;9.960;2023-03-29T03:42:59;100703.63;;;4.06;87.90
39443;BME280;25147;52.142;9.960;2023-03-29T03:45:26;100715.72;;;4.07;88.20
39443;BME280;25147;52.142;9.960;2023-03-29T03:47:53;100692.47;;;4.10;88.22
39443;BME280;25147;52.142;9.960;2023-03-29T03:50:20;100612.25;;;3.58;88.14
39443;BME280;25147;52.142;9.960;2023-03-29T03:52:47;100647.16;;;3.81;88.46
39443;BME280;25147;52.142;9.960;2023-03-29T03:55:15;100641.13;;;3.81;88.69
39443;BME280;25147;52.142;9.960;2023-03-29T03:57:42;100402.69;;;2.42;88.35
39443;BME280;25147;52.142;9.960;2023-03-29T04:00:10;100587.97;;;3.48;88.56
39443;BME280;25147;52.142;9.960;2023-03-29T04:02:39;100674.31;;;4.08;88.73
39443;BME280;25147;52.142;9.960;2023-03-29T04:05:06;100705.44;;;4.10;88.81
39443;BME280;25147;52.142;9.960;2023-03-29T04:07:33;100659.44;;;3.95;88.73
39443;BME280;25147;52.142;9.960;2023-03-29T04:10:00;100566.38;;;3.48;88.97
39443;BME280;25147;52.142;9.960;2023-03-29T04:12:28;100474.09;;;2.90;88.84
39443;BME280;25147;52.142;9.960;2023-03-29T04:14:54;100649.03;;;3.92;88.83
39443;BME280;25147;52.142;9.960;2023-03-29T04:17:21;100659.72;;;4.15;88.92
39443;BME280;25147;52.142;9.960;2023-03-29T04:19:48;100577.75;;;3.57;88.85
39443;BME280;25147;52.142;9.960;2023-03-29T04:22:14;100538.53;;;3.31;88.56
39443;BME280;25147;52.142;9.960;2023-03-29T04:24:41;100655.31;;;4.08;88.60
39443;BME280;25147;52.142;9.960;2023-03-29T04:27:08;100628.03;;;3.73;89.01
39443;BME280;25147;52.142;9.960;2023-03-29T04:29:36;100664.84;;;4.10;89.21
39443;BME280;25147;52.142;9.960;2023-03-29T04:32:03;100666.56;;;4.10;89.08
39443;BME280;25147;52.142;9.960;2023-03-29T04:34:30;100670.00;;;4.09;89.31
39443;BME280;25147;52.142;9.960;2023-03-29T04:36:58;100613.34;;;3.71;89.24
39443;BME280;25147;52.142;9.960;2023-03-29T04:39:25;100606.31;;;3.64;89.10
39443;BME280;25147;52.142;9.960;2023-03-29T04:41:58;100664.75;;;4.04;89.39
39443;BME280;25147;52.142;9.960;2023-03-29T04:44:27;100599.56;;;3.73;89.38
39443;BME280;25147;52.142;9.960;2023-03-29T04:46:55;100495.97;;;3.11;89.54
39443;BME280;25147;52.142;9.960;2023-03-29T04:49:22;100656.19;;;4.10;89.46
39443;BME280;25147;52.142;9.960;2023-03-29T04:51:49;100467.31;;;2.97;89.51
39443;BME280;25147;52.142;9.960;2023-03-29T04:54:16;100660.50;;;4.11;89.77
39443;BME280;25147;52.142;9.960;2023-03-29T04:56:42;100651.03;;;4.13;89.70
39443;BME280;25147;52.142;9.960;2023-03-29T04:59:09;100637.97;;;4.04;89.86
39443;BME280;25147;52.142;9.960;2023-03-29T05:01:36;100507.50;;;3.31;89.66
39443;BME280;25147;52.142;9.960;2023-03-29T05:04:04;100674.38;;;4.14;89.71
39443;BME280;25147;52.142;9.960;2023-03-29T05:06:31;100508.38;;;3.32;89.75
39443;BME280;25147;52.142;9.960;2023-03-29T05:08:57;100649.25;;;4.09;89.70
39443;BME280;25147;52.142;9.960;2023-03-29T05:11:25;100645.06;;;4.15;89.80
39443;BME280;25147;52.142;9.960;2023-03-29T05:13:52;100665.78;;;4.15;89.56
39443;BME280;25147;52.142;9.960;2023-03-29T05:16:19;100654.59;;;4.18;89.75
39443;BME280;25147;52.142;9.960;2023-03-29T05:18:46;100646.84;;;4.19;89.63
39443;BME280;25147;52.142;9.960;2023-03-29T05:21:14;100587.53;;;3.78;89.37
39443;BME280;25147;52.142;9.960;2023-03-29T05:23:41;100629.47;;;4.14;89.47
39443;BME280;25147;52.142;9.960;2023-03-29T05:26:09;100583.16;;;3.74;89.54
39443;BME280;25147;52.142;9.960;2023-03-29T05:28:38;100616.41;;;4.06;89.69
39443;BME280;25147;52.142;9.960;2023-03-29T05:31:05;100654.59;;;4.18;89.87
39443;BME280;25147;52.142;9.960;2023-03-29T05:33:33;100626.97;;;4.20;89.58
39443;BME280;25147;52.142;9.960;2023-03-29T05:36:00;100626.09;;;4.19;89.64
39443;BME280;25147;52.142;9.960;2023-03-29T05:38:28;100607.00;;;4.11;89.92
39443;BME280;25147;52.142;9.960;2023-03-29T05:40:57;100622.69;;;4.22;89.59
39443;BME280;25147;52.142;9.960;2023-03-29T05:43:24;100523.47;;;3.64;89.49
39443;BME280;25147;52.142;9.960;2023-03-29T05:45:51;100612.34;;;4.24;89.58
39443;BME280;25147;52.142;9.960;2023-03-29T05:48:19;100417.53;;;3.12;89.57
39443;BME280;25147;52.142;9.960;2023-03-29T05:50:47;100365.47;;;2.87;89.49
39443;BME280;25147;52.142;9.960;2023-03-29T05:53:14;100319.09;;;2.40;89.36
39443;BME280;25147;52.142;9.960;2023-03-29T05:55:43;100498.28;;;3.52;88.86
39443;BME280;25147;52.142;9.960;2023-03-29T05:58:11;100621.09;;;4.35;89.16
39443;BME280;25147;52.142;9.960;2023-03-29T06:00:38;100563.75;;;4.06;88.85
39443;BME280;25147;52.142;9.960;2023-03-29T06:03:06;100585.50;;;4.20;88.78
39443;BME280;25147;52.142;9.960;2023-03-29T06:05:34;100609.09;;;4.41;88.91
39443;BME280;25147;52.142;9.960;2023-03-29T06:08:01;100515.22;;;3.92;88.62
39443;BME280;25147;52.142;9.960;2023-03-29T06:10:28;100495.22;;;3.80;88.38
39443;BME280;25147;52.142;9.960;2023-03-29T06:12:56;100333.63;;;2.90;88.46
39443;BME280;25147;52.142;9.960;2023-03-29T06:15:23;100531.78;;;4.07;88.48
39443;BME280;25147;52.142;9.960;2023-03-29T06:17:50;100505.84;;;4.02;88.15
39443;BME280;25147;52.142;9.960;2023-03-29T06:20:17;100437.22;;;3.66;87.93
39443;BME280;25147;52.142;9.960;2023-03-29T06:22:44;100520.63;;;4.11;87.72
39443;BME280;25147;52.142;9.960;2023-03-29T06:25:12;100504.22;;;4.10;87.71
39443;BME280;25147;52.142;9.960;2023-03-29T06:27:39;100361.69;;;3.28;87.39
39443;BME280;25147;52.142;9.960;2023-03-29T06:30:10;100610.34;;;4.76;87.30
39443;BME280;25147;52.142;9.960;2023-03-29T06:32:37;100433.88;;;3.75;87.00
39443;BME280;25147;52.142;9.960;2023-03-29T06:35:04;100527.75;;;4.30;86.75
39443;BME280;25147;52.142;9.960;2023-03-29T06:37:31;100499.03;;;4.10;86.79
39443;BME280;25147;52.142;9.960;2023-03-29T06:39:58;100627.69;;;4.81;86.75
39443;BME280;25147;52.142;9.960;2023-03-29T06:42:25;100568.69;;;4.60;86.53
39443;BME280;25147;52.142;9.960;2023-03-29T06:44:52;100603.53;;;4.86;86.65
39443;BME280;25147;52.142;9.960;2023-03-29T06:47:21;100520.09;;;4.41;86.30
39443;BME280;25147;52.142;9.960;2023-03-29T06:49:53;100574.88;;;4.73;85.97
39443;BME280;25147;52.142;9.960;2023-03-29T06:52:20;100603.59;;;4.92;85.82
39443;BME280;25147;52.142;9.960;2023-03-29T06:54:46;100611.44;;;4.99;85.79
39443;BME280;25147;52.142;9.960;2023-03-29T06:57:13;100454.94;;;4.06;85.22
39443;BME280;25147;52.142;9.960;2023-03-29T06:59:40;100629.75;;;5.13;85.48
39443;BME280;25147;52.142;9.960;2023-03-29T07:02:08;100623.78;;;5.23;84.85
39443;BME280;25147;52.142;9.960;2023-03-29T07:04:38;100622.97;;;5.28;84.69
39443;BME280;25147;52.142;9.960;2023-03-29T07:07:06;100507.38;;;4.66;84.52
39443;BME280;25147;52.142;9.960;2023-03-29T07:09:44;100569.16;;;5.10;83.90
39443;BME280;25147;52.142;9.960;2023-03-29T07:12:11;100619.59;;;5.42;83.79
39443;BME280;25147;52.142;9.960;2023-03-29T07:14:37;100450.00;;;4.29;83.29
39443;BME280;25147;52.142;9.960;2023-03-29T07:17:04;100615.28;;;5.40;83.49
39443;BME280;25147;52.142;9.960;2023-03-29T07:19:31;100485.00;;;4.77;82.96
39443;BME280;25147;52.142;9.960;2023-03-29T07:21:59;100434.66;;;4.50;82.84
39443;BME280;25147;52.142;9.960;2023-03-29T07:24:31;100308.84;;;3.85;82.88
39443;BME280;25147;52.142;9.960;2023-03-29T07:26:58;100588.56;;;5.56;82.66
39443;BME280;25147;52.142;9.960;2023-03-29T07:29:26;100599.84;;;5.63;82.27
39443;BME280;25147;52.142;9.960;2023-03-29T07:31:53;100638.84;;;5.66;82.59
39443;BME280;25147;52.142;9.960;2023-03-29T07:34:21;100602.50;;;5.71;82.19
39443;BME280;25147;52.142;9.960;2023-03-29T07:36:48;100598.19;;;5.76;82.01
39443;BME280;25147;52.142;9.960;2023-03-29T07:39:17;100622.50;;;5.84;81.74
39443;BME280;25147;52.142;9.960;2023-03-29T07:41:44;100470.56;;;5.14;81.44
39443;BME280;25147;52.142;9.960;2023-03-29T07:44:11;100602.69;;;5.95;81.23
39443;BME280;25147;52.142;9.960;2023-03-29T07:46:38;100602.72;;;6.06;80.58
39443;BME280;25147;52.142;9.960;2023-03-29T07:49:07;100460.22;;;5.17;80.06
39443;BME280;25147;52.142;9.960;2023-03-29T07:51:33;100581.06;;;6.01;80.46
39443;BME280;25147;52.142;9.960;2023-03-29T07:54:01;100605.41;;;6.17;79.91
39443;BME280;25147;52.142;9.960;2023-03-29T07:56:29;100608.91;;;6.30;80.16
39443;BME280;25147;52.142;9.960;2023-03-29T07:58:56;100489.91;;;5.67;79.84
39443;BME280;25147;52.142;9.960;2023-03-29T08:01:23;100581.19;;;6.35;79.57
39443;BME280;25147;52.142;9.960;2023-03-29T08:03:49;100631.53;;;6.52;79.15
39443;BME280;25147;52.142;9.960;2023-03-29T08:06:16;100595.97;;;6.51;78.82
39443;BME280;25147;52.142;9.960;2023-03-29T08:08:43;100614.25;;;6.65;78.56
39443;BME280;25147;52.142;9.960;2023-03-29T08:11:09;100610.81;;;6.72;78.63
39443;BME280;25147;52.142;9.960;2023-03-29T08:13:37;100495.31;;;6.07;77.67
39443;BME280;25147;52.142;9.960;2023-03-29T08:16:05;100616.03;;;6.80;77.40
39443;BME280;25147;52.142;9.960;2023-03-29T08:18:32;100619.50;;;6.83;76.87
39443;BME280;25147;52.142;9.960;2023-03-29T08:20:59;100604.75;;;6.84;76.93
39443;BME280;25147;52.142;9.960;2023-03-29T08:23:26;100609.09;;;6.87;76.41
39443;BME280;25147;52.142;9.960;2023-03-29T08:25:52;100566.56;;;6.72;76.74
39443;BME280;25147;52.142;9.960;2023-03-29T08:28:19;100454.63;;;6.15;76.35
39443;BME280;25147;52.142;9.960;2023-03-29T08:30:48;100467.63;;;6.25;76.02
39443;BME280;25147;52.142;9.960;2023-03-29T08:33:14;100544.88;;;6.69;75.08
39443;BME280;25147;52.142;9.960;2023-03-29T08:35:41;100498.00;;;6.42;75.20
39443;BME280;25147;52.142;9.960;2023-03-29T08:38:08;100567.47;;;6.87;75.40
39443;BME280;25147;52.142;9.960;2023-03-29T08:40:36;100589.16;;;6.93;75.31
39443;BME280;25147;52.142;9.960;2023-03-29T08:43:20;100614.34;;;7.20;74.63
39443;BME280;25147;52.142;9.960;2023-03-29T08:46:02;100605.66;;;7.12;74.84
39443;BME280;25147;52.142;9.960;2023-03-29T08:48:34;100487.63;;;6.53;75.18
39443;BME280;25147;52.142;9.960;2023-03-29T08:51:10;100582.22;;;7.20;74.77
39443;BME280;25147;52.142;9.960;2023-03-29T08:53:42;100491.13;;;6.74;74.31
39443;BME280;25147;52.142;9.960;2023-03-29T08:56:12;100606.53;;;7.54;74.17
39443;BME280;25147;52.142;9.960;2023-03-29T08:58:41;100491.97;;;6.96;74.09
39443;BME280;25147;52.142;9.960;2023-03-29T09:01:09;100567.44;;;7.54;73.94
39443;BME280;25147;52.142;9.960;2023-03-29T09:03:39;100574.38;;;7.80;74.33
39443;BME280;25147;52.142;9.960;2023-03-29T09:06:09;100505.78;;;7.58;72.85
39443;BME280;25147;52.142;9.960;2023-03-29T09:08:38;100576.84;;;8.14;72.93
39443;BME280;25147;52.142;9.960;2023-03-29T09:11:16;100514.41;;;7.75;72.21
39443;BME280;25147;52.142;9.960;2023-03-29T09:13:52;100585.50;;;8.27;72.04
39443;BME280;25147;52.142;9.960;2023-03-29T09:16:29;100393.00;;;7.39;71.78
39443;BME280;25147;52.142;9.960;2023-03-29T09:19:05;100457.94;;;7.82;71.24
39443;BME280;25147;52.142;9.960;2023-03-29T09:21:40;100576.66;;;8.64;70.72
39443;BME280;25147;52.142;9.960;2023-03-29T09:24:19;100421.44;;;7.83;70.53
39443;BME280;25147;52.142;9.960;2023-03-29T09:26:55;100423.13;;;7.92;70.16
39443;BME280;25147;52.142;9.960;2023-03-29T09:29:43;100434.41;;;7.99;69.72
39443;BME280;25147;52.142;9.960;2023-03-29T09:32:19;100552.13;;;8.90;69.22
39443;BME280;25147;52.142;9.960;2023-03-29T09:34:53;100395.28;;;7.97;69.12
39443;BME280;25147;52.142;9.960;2023-03-29T09:37:30;100494.94;;;8.56;68.33
39443;BME280;25147;52.142;9.960;2023-03-29T09:39:58;100479.34;;;8.44;68.44
39443;BME280;25147;52.142;9.960;2023-03-29T09:42:27;100334.75;;;7.52;68.51
39443;BME280;25147;52.142;9.960;2023-03-29T09:44:59;100419.69;;;7.90;69.46
39443;BME280;25147;52.142;9.960;2023-03-29T09:47:37;100566.25;;;8.61;69.44
39443;BME280;25147;52.142;9.960;2023-03-29T09:50:09;100414.56;;;7.72;69.59
39443;BME280;25147;52.142;9.960;2023-03-29T09:52:38;100582.78;;;8.54;69.94
39443;BME280;25147;52.142;9.960;2023-03-29T09:55:12;100549.88;;;8.22;70.22
39443;BME280;25147;52.142;9.960;2023-03-29T09:57:48;100589.78;;;8.40;71.15
39443;BME280;25147;52.142;9.960;2023-03-29T10:00:25;100401.69;;;7.27;71.54
39443;BME280;25147;52.142;9.960;2023-03-29T10:02:56;100556.00;;;8.15;71.53
39443;BME280;25147;52.142;9.960;2023-03-29T10:05:24;100290.81;;;6.49;71.99
39443;BME280;25147;52.142;9.960;2023-03-29T10:07:53;100572.47;;;8.25;71.89
39443;BME280;25147;52.142;9.960;2023-03-29T10:10:27;100547.38;;;7.98;72.42
39443;BME280;25147;52.142;9.960;2023-03-29T10:12:58;100290.81;;;6.63;72.29
39443;BME280;25147;52.142;9.960;2023-03-29T10:15:26;100590.69;;;8.30;72.68
39443;BME280;25147;52.142;9.960;2023-03-29T10:17:59;100508.25;;;8.01;72.47
39443;BME280;25147;52.142;9.960;2023-03-29T10:20:27;100543.78;;;8.25;73.12
39443;BME280;25147;52.142;9.960;2023-03-29T10:22:56;100560.22;;;8.38;72.90
39443;BME280;25147;52.142;9.960;2023-03-29T10:25:25;100581.09;;;8.46;73.10
39443;BME280;25147;52.142;9.960;2023-03-29T10:27:54;100282.09;;;6.84;73.17
39443;BME280;25147;52.142;9.960;2023-03-29T10:30:24;100507.16;;;8.40;73.16
39443;BME280;25147;52.142;9.960;2023-03-29T10:32:55;100466.41;;;8.27;73.00
39443;BME280;25147;52.142;9.960;2023-03-29T10:35:28;100560.69;;;9.08;72.90
39443;BME280;25147;52.142;9.960;2023-03-29T10:37:58;100522.41;;;9.07;72.11
39443;BME280;25147;52.142;9.960;2023-03-29T10:40:30;100528.44;;;9.15;72.10
39443;BME280;25147;52.142;9.960;2023-03-29T10:42:59;100438.25;;;8.75;72.07
39443;BME280;25147;52.142;9.960;2023-03-29T10:45:27;100537.63;;;9.56;71.75
39443;BME280;25147;52.142;9.960;2023-03-29T10:47:56;100457.06;;;9.14;72.21
39443;BME280;25147;52.142;9.960;2023-03-29T10:50:29;100511.41;;;9.63;70.99
39443;BME280;25147;52.142;9.960;2023-03-29T10:52:57;100423.06;;;9.17;71.02
39443;BME280;25147;52.142;9.960;2023-03-29T10:55:27;100475.09;;;9.40;70.99
39443;BME280;25147;52.142;9.960;2023-03-29T10:58:12;100481.38;;;9.18;71.80
39443;BME280;25147;52.142;9.960;2023-03-29T11:00:48;100315.97;;;8.31;72.09
39443;BME280;25147;52.142;9.960;2023-03-29T11:03:43;100543.34;;;9.90;72.75
39443;BME280;25147;52.142;9.960;2023-03-29T11:06:21;100546.88;;;9.89;72.84
39443;BME280;25147;52.142;9.960;2023-03-29T11:08:57;100457.66;;;9.38;73.02
39443;BME280;25147;52.142;9.960;2023-03-29T11:11:42;100527.59;;;9.98;73.36
39443;BME280;25147;52.142;9.960;2023-03-29T11:14:25;100371.66;;;9.18;72.65
39443;BME280;25147;52.142;9.960;2023-03-29T11:17:04;100464.97;;;9.87;72.55
39443;BME280;25147;52.142;9.960;2023-03-29T11:19:46;100349.66;;;9.40;72.56
39443;BME280;25147;52.142;9.960;2023-03-29T11:22:22;100391.84;;;9.79;71.21
39443;BME280;25147;52.142;9.960;2023-03-29T11:25:04;100288.56;;;9.48;71.03
39443;BME280;25147;52.142;9.960;2023-03-29T11:27:40;100323.91;;;9.75;70.55
39443;BME280;25147;52.142;9.960;2023-03-29T11:30:16;100365.25;;;10.09;70.42
39443;BME280;25147;52.142;9.960;2023-03-29T11:32:52;100357.19;;;10.24;69.96
39443;BME280;25147;52.142;9.960;2023-03-29T11:35:39;100269.72;;;9.84;69.34
39443;BME280;25147;52.142;9.960;2023-03-29T11:38:15;100501.34;;;11.23;69.42
39443;BME280;25147;52.142;9.960;2023-03-29T11:40:50;100349.91;;;10.44;69.00
39443;BME280;25147;52.142;9.960;2023-03-29T11:43:24;100511.31;;;11.50;69.06
39443;BME280;25147;52.142;9.960;2023-03-29T11:45:55;100401.44;;;10.92;68.25
39443;BME280;25147;52.142;9.960;2023-03-29T11:48:27;100502.47;;;11.55;67.86
39443;BME280;25147;52.142;9.960;2023-03-29T11:50:58;100488.97;;;11.32;67.14
39443;BME280;25147;52.142;9.960;2023-03-29T11:53:33;100361.97;;;10.53;67.99
39443;BME280;25147;52.142;9.960;2023-03-29T11:56:09;100505.31;;;11.44;67.25
39443;BME280;25147;52.142;9.960;2023-03-29T11:58:40;100398.19;;;10.79;67.26
39443;BME280;25147;52.142;9.960;2023-03-29T12:01:11;100402.50;;;10.82;67.40
39443;BME280;25147;52.142;9.960;2023-03-29T12:03:41;100373.91;;;10.70;67.72
39443;BME280;25147;52.142;9.960;2023-03-29T12:06:15;100225.47;;;9.72;67.60
39443;BME280;25147;52.142;9.960;2023-03-29T12:08:50;100414.63;;;10.88;67.85
39443;BME280;25147;52.142;9.960;2023-03-29T12:11:24;100492.97;;;11.50;67.91
39443;BME280;25147;52.142;9.960;2023-03-29T12:13:54;100397.53;;;11.15;68.23
39443;BME280;25147;52.142;9.960;2023-03-29T12:16:26;100335.94;;;10.94;67.27
39443;BME280;25147;52.142;9.960;2023-03-29T12:18:57;100375.41;;;11.30;67.28
39443;BME280;25147;52.142;9.960;2023-03-29T12:21:27;100424.41;;;11.70;66.73
39443;BME280;25147;52.142;9.960;2023-03-29T12:23:56;100483.72;;;12.19;66.60
39443;BME280;25147;52.142;9.960;2023-03-29T12:26:48;100469.41;;;12.34;65.54
39443;BME280;25147;52.142;9.960;2023-03-29T12:29:34;100294.94;;;11.35;65.87
39443;BME280;25147;52.142;9.960;2023-03-29T12:32:18;100438.16;;;12.23;65.63
39443;BME280;25147;52.142;9.960;2023-03-29T12:34:59;100446.00;;;12.23;65.61
39443;BME280;25147;52.142;9.960;2023-03-29T12:37:39;100383.28;;;11.72;66.16
39443;BME280;25147;52.142;9.960;2023-03-29T12:40:15;100387.28;;;11.88;65.92
39443;BME280;25147;52.142;9.960;2023-03-29T12:42:50;100481.78;;;12.27;65.95
39443;BME280;25147;52.142;9.960;2023-03-29T12:45:33;100287.47;;;11.15;65.91
39443;BME280;25147;52.142;9.960;2023-03-29T12:48:03;100339.91;;;11.57;66.03
39443;BME280;25147;52.142;9.960;2023-03-29T12:50:44;100197.84;;;10.58;66.27
39443;BME280;25147;52.142;9.960;2023-03-29T12:53:20;100178.03;;;10.45;66.65
39443;BME280;25147;52.142;9.960;2023-03-29T12:56:08;100373.97;;;11.58;67.42
39443;BME280;25147;52.142;9.960;2023-03-29T12:58:41;100298.09;;;11.09;67.53
39443;BME280;25147;52.142;9.960;2023-03-29T13:01:23;100376.78;;;11.48;68.01
39443;BME280;25147;52.142;9.960;2023-03-29T13:04:16;100266.03;;;10.52;68.65
39443;BME280;25147;52.142;9.960;2023-03-29T13:06:55;100276.38;;;10.58;69.19
39443;BME280;25147;52.142;9.960;2023-03-29T13:09:29;100217.09;;;10.04;70.27
39443;BME280;25147;52.142;9.960;2023-03-29T13:12:12;100313.44;;;10.34;73.69
39443;BME280;25147;52.142;9.960;2023-03-29T13:14:47;100384.34;;;10.71;76.24
39443;BME280;25147;52.142;9.960;2023-03-29T13:17:23;100472.34;;;11.31;76.77